Time;durP1;ratioP1;P1;durP2;ratioP2;P2;SDS_P1;SDS_P2;PMS_P1;PMS_P2;Temp;Humidity;BMP_temperature;BMP_pressure;BME280_temperature;BME280_humidity;BME280_pressure;Samples;Min_cycle;Max_cycle;Signal;HPM_P1;HPM_P2
2021/04/30 00:00:16;;;;;;;4.40;2.80;;;11.70;75.60;;;;;;5103599;28;20044;-80
2021/04/30 00:02:42;;;;;;;5.43;3.10;;;11.70;76.30;;;;;;5076687;28;20048;-81
2021/04/30 00:05:11;;;;;;;5.20;3.20;;;11.70;76.40;;;;;;5097894;28;20076;-79
2021/04/30 00:07:38;;;;;;;4.93;3.10;;;11.70;76.10;;;;;;5096209;28;20122;-81
2021/04/30 00:10:06;;;;;;;4.25;2.92;;;11.60;75.90;;;;;;5096884;28;20035;-80
2021/04/30 00:12:33;;;;;;;4.47;2.97;;;11.60;75.70;;;;;;5096391;28;20463;-80
2021/04/30 00:15:00;;;;;;;5.50;3.00;;;11.60;75.40;;;;;;5097312;28;20458;-81
2021/04/30 00:17:28;;;;;;;5.65;3.20;;;11.60;75.40;;;;;;5109719;28;20490;-81
2021/04/30 00:19:55;;;;;;;4.20;2.70;;;11.60;75.50;;;;;;5089080;28;20082;-82
2021/04/30 00:22:22;;;;;;;4.95;3.22;;;11.70;75.50;;;;;;5105368;28;20072;-82
2021/04/30 00:24:48;;;;;;;5.05;2.80;;;11.60;75.10;;;;;;5108929;28;20478;-83
2021/04/30 00:27:15;;;;;;;5.50;3.17;;;11.60;74.50;;;;;;5096255;28;20071;-82
2021/04/30 00:29:41;;;;;;;4.85;2.60;;;11.70;74.00;;;;;;5095569;28;20059;-81
2021/04/30 00:32:08;;;;;;;4.55;2.63;;;11.70;73.80;;;;;;5097645;28;20086;-81
2021/04/30 00:34:36;;;;;;;4.53;2.97;;;11.70;74.00;;;;;;5097030;28;20485;-81
2021/04/30 00:37:03;;;;;;;4.40;2.75;;;11.70;74.00;;;;;;5096867;28;20159;-81
2021/04/30 00:39:29;;;;;;;5.20;3.15;;;11.70;73.60;;;;;;5090444;28;20123;-81
2021/04/30 00:41:56;;;;;;;4.80;3.30;;;11.70;74.40;;;;;;5096148;28;20135;-81
2021/04/30 00:44:22;;;;;;;5.60;2.90;;;11.70;74.80;;;;;;5097888;28;20075;-81
2021/04/30 00:46:49;;;;;;;5.40;3.15;;;11.70;74.90;;;;;;5097782;28;20485;-82
2021/04/30 00:49:16;;;;;;;5.43;3.25;;;11.60;74.90;;;;;;5096888;28;20505;-82
2021/04/30 00:51:44;;;;;;;4.90;2.90;;;11.60;74.60;;;;;;5096953;28;20134;-82
2021/04/30 00:54:10;;;;;;;6.00;2.63;;;11.60;74.80;;;;;;5098132;28;20075;-82
2021/04/30 00:56:37;;;;;;;5.32;3.25;;;11.60;75.40;;;;;;5106335;28;20079;-82
2021/04/30 00:59:04;;;;;;;5.18;3.17;;;11.60;75.40;;;;;;5096808;28;20079;-82
2021/04/30 01:01:32;;;;;;;4.60;2.75;;;11.50;76.10;;;;;;5096418;28;20077;-81
2021/04/30 01:03:58;;;;;;;4.38;2.72;;;11.50;76.40;;;;;;5096354;28;20075;-82
2021/04/30 01:06:25;;;;;;;4.85;2.80;;;11.40;76.40;;;;;;5095175;28;20127;-82
2021/04/30 01:08:53;;;;;;;5.55;3.60;;;11.40;76.70;;;;;;5094695;28;20052;-83
2021/04/30 01:11:20;;;;;;;5.63;3.47;;;11.40;77.50;;;;;;5091729;28;20123;-83
2021/04/30 01:13:46;;;;;;;5.10;3.40;;;11.30;78.20;;;;;;5086597;28;20079;-83
2021/04/30 01:16:13;;;;;;;5.75;2.90;;;11.30;78.00;;;;;;5097191;28;20077;-82
2021/04/30 01:18:42;;;;;;;4.82;3.03;;;11.20;78.00;;;;;;5096368;28;20051;-81
2021/04/30 01:21:10;;;;;;;4.57;3.03;;;11.20;78.60;;;;;;5105073;28;20048;-81
2021/04/30 01:23:47;;;;;;;5.22;2.80;;;11.20;78.90;;;;;;5105906;28;20409;-81
2021/04/30 01:26:14;;;;;;;5.13;3.08;;;11.20;79.90;;;;;;5097326;28;20075;-81
2021/04/30 01:28:41;;;;;;;5.22;2.78;;;11.30;81.50;;;;;;5095920;28;20087;-82
2021/04/30 01:31:08;;;;;;;4.47;2.97;;;11.30;82.90;;;;;;5079544;28;20095;-81
2021/04/30 01:33:34;;;;;;;5.97;3.70;;;11.30;84.10;;;;;;5095876;28;20110;-81
2021/04/30 01:36:01;;;;;;;5.22;3.55;;;11.40;83.50;;;;;;5095106;28;20079;-83
2021/04/30 01:38:28;;;;;;;5.75;3.42;;;11.30;84.10;;;;;;5095618;28;20051;-82
2021/04/30 01:40:56;;;;;;;4.53;3.08;;;11.20;85.30;;;;;;5095584;28;20471;-83
2021/04/30 01:43:25;;;;;;;4.97;3.05;;;11.00;87.80;;;;;;5091493;28;20072;-82
2021/04/30 01:45:56;;;;;;;4.32;2.60;;;10.90;89.00;;;;;;5086345;28;20048;-82
2021/04/30 01:48:25;;;;;;;4.65;2.75;;;10.90;89.70;;;;;;5090203;28;20135;-83
2021/04/30 01:50:53;;;;;;;4.53;2.88;;;11.00;90.50;;;;;;5086049;28;20139;-81
2021/04/30 01:53:22;;;;;;;5.00;2.75;;;10.90;90.60;;;;;;5095547;28;20493;-81
2021/04/30 01:55:49;;;;;;;4.30;2.90;;;11.00;90.30;;;;;;5095209;28;20147;-82
2021/04/30 01:58:17;;;;;;;5.55;3.25;;;11.00;90.20;;;;;;5095642;28;20464;-82
2021/04/30 02:00:44;;;;;;;6.15;3.55;;;11.10;90.20;;;;;;5095315;28;20107;-82
2021/04/30 02:03:11;;;;;;;4.85;3.13;;;11.10;90.40;;;;;;5095934;28;20470;-83
2021/04/30 02:05:39;;;;;;;5.53;3.10;;;11.10;90.40;;;;;;5097635;28;20390;-83
2021/04/30 02:08:09;;;;;;;4.63;3.08;;;11.10;91.00;;;;;;5101555;28;20101;-84
2021/04/30 02:10:37;;;;;;;5.53;3.20;;;11.00;91.20;;;;;;5101212;28;20083;-83
2021/04/30 02:13:04;;;;;;;6.50;3.35;;;11.00;91.70;;;;;;5095121;28;20044;-84
2021/04/30 02:15:35;;;;;;;5.80;3.20;;;10.90;92.30;;;;;;5095231;28;20130;-84
2021/04/30 02:18:02;;;;;;;4.28;2.67;;;10.90;93.00;;;;;;5094163;28;20071;-83
2021/04/30 02:20:29;;;;;;;4.53;3.10;;;10.70;93.60;;;;;;5094355;28;20086;-82
2021/04/30 02:22:56;;;;;;;6.32;3.38;;;10.60;92.90;;;;;;5094443;28;20409;-82
2021/04/30 02:25:24;;;;;;;5.15;3.50;;;10.60;92.60;;;;;;5094933;28;20105;-82
2021/04/30 02:27:53;;;;;;;4.47;3.25;;;10.60;92.40;;;;;;5094661;28;20083;-82
2021/04/30 02:30:23;;;;;;;5.47;3.75;;;10.60;92.20;;;;;;5093612;28;20059;-83
2021/04/30 02:32:52;;;;;;;7.10;4.22;;;10.70;91.70;;;;;;5094015;28;20095;-81
2021/04/30 02:35:25;;;;;;;6.95;4.38;;;10.70;91.20;;;;;;5094167;28;20075;-80
2021/04/30 02:37:53;;;;;;;5.70;4.07;;;10.80;91.20;;;;;;5093229;28;20135;-80
2021/04/30 02:40:23;;;;;;;6.57;4.38;;;10.70;91.60;;;;;;5094201;28;20127;-79
2021/04/30 02:42:50;;;;;;;6.60;4.57;;;10.70;91.70;;;;;;5093814;28;20550;-79
2021/04/30 02:45:18;;;;;;;6.07;4.20;;;10.60;91.80;;;;;;5094015;28;20129;-81
2021/04/30 02:47:47;;;;;;;5.38;3.65;;;10.60;92.30;;;;;;5094062;28;20079;-79
2021/04/30 02:50:18;;;;;;;4.90;3.78;;;10.60;92.50;;;;;;5092902;28;20044;-80
2021/04/30 02:52:46;;;;;;;6.60;4.00;;;10.60;93.20;;;;;;5094029;28;20141;-80
2021/04/30 02:55:15;;;;;;;6.00;3.50;;;10.70;93.30;;;;;;5093655;28;20075;-78
2021/04/30 02:57:42;;;;;;;5.80;3.55;;;10.60;93.40;;;;;;5093964;28;20143;-81
2021/04/30 03:00:12;;;;;;;5.63;4.10;;;10.70;93.40;;;;;;5093911;28;20135;-81
2021/04/30 03:02:39;;;;;;;6.85;4.13;;;10.70;93.40;;;;;;5091846;28;20140;-81
2021/04/30 03:05:07;;;;;;;5.65;4.15;;;10.80;93.40;;;;;;5091565;28;20044;-81
2021/04/30 03:07:35;;;;;;;6.45;4.10;;;10.80;93.50;;;;;;5093347;28;20079;-82
2021/04/30 03:10:01;;;;;;;7.25;4.50;;;10.80;93.50;;;;;;5090732;28;20139;-82
2021/04/30 03:12:28;;;;;;;6.40;4.25;;;10.90;93.50;;;;;;5091871;28;20052;-81
2021/04/30 03:14:55;;;;;;;6.53;4.90;;;10.90;93.60;;;;;;5091492;28;20076;-80
2021/04/30 03:17:21;;;;;;;6.47;4.43;;;10.90;93.70;;;;;;5091570;28;20144;-82
2021/04/30 03:19:48;;;;;;;7.40;4.70;;;10.90;93.80;;;;;;5091054;28;20052;-82
2021/04/30 03:22:15;;;;;;;6.95;4.40;;;10.90;93.70;;;;;;5092600;28;20553;-82
2021/04/30 03:24:42;;;;;;;5.90;4.00;;;10.90;93.80;;;;;;5096265;28;20483;-83
2021/04/30 03:27:09;;;;;;;6.53;4.65;;;10.90;93.90;;;;;;5101068;28;20064;-83
2021/04/30 03:29:36;;;;;;;7.03;4.20;;;10.90;93.90;;;;;;5091347;28;20091;-82
2021/04/30 03:32:04;;;;;;;6.55;4.47;;;10.90;93.90;;;;;;5091988;28;20510;-82
2021/04/30 03:34:30;;;;;;;6.97;4.40;;;10.90;93.90;;;;;;5091959;28;20138;-81
2021/04/30 03:36:57;;;;;;;6.60;4.60;;;10.90;94.00;;;;;;5091986;28;20091;-82
2021/04/30 03:39:23;;;;;;;7.55;5.18;;;10.90;94.20;;;;;;5091970;28;20139;-81
2021/04/30 03:41:51;;;;;;;7.30;5.07;;;10.90;93.80;;;;;;5091591;28;20048;-82
2021/04/30 03:44:18;;;;;;;6.47;4.68;;;10.80;94.20;;;;;;5091113;28;20086;-82
2021/04/30 03:46:44;;;;;;;6.32;4.20;;;10.70;94.60;;;;;;5091490;28;20071;-82
2021/04/30 03:49:11;;;;;;;6.85;4.53;;;10.60;95.00;;;;;;5087392;28;20128;-82
2021/04/30 03:51:38;;;;;;;6.82;4.45;;;10.60;95.20;;;;;;5087992;28;20082;-81
2021/04/30 03:54:05;;;;;;;5.30;3.85;;;10.50;95.40;;;;;;5090281;28;20174;-83
2021/04/30 03:56:32;;;;;;;6.07;4.43;;;10.50;95.50;;;;;;5091637;28;20044;-82
2021/04/30 03:59:00;;;;;;;6.72;4.70;;;10.50;95.50;;;;;;5091218;28;20175;-83
2021/04/30 04:01:27;;;;;;;6.78;5.10;;;10.50;95.70;;;;;;5091706;28;20044;-83
2021/04/30 04:03:54;;;;;;;7.70;4.85;;;10.50;95.80;;;;;;5093308;28;20552;-82
2021/04/30 04:06:21;;;;;;;6.95;5.00;;;10.50;95.80;;;;;;5088893;28;20483;-81
2021/04/30 04:08:47;;;;;;;7.07;5.15;;;10.50;95.70;;;;;;5091144;28;20076;-81
2021/04/30 04:11:14;;;;;;;7.25;5.18;;;10.60;95.70;;;;;;5093490;28;20052;-81
2021/04/30 04:13:41;;;;;;;7.47;5.07;;;10.60;95.70;;;;;;5095394;28;20513;-82
2021/04/30 04:16:09;;;;;;;6.88;4.88;;;10.50;95.60;;;;;;5097579;28;20048;-82
2021/04/30 04:18:35;;;;;;;8.07;4.90;;;10.60;95.50;;;;;;5097849;28;20095;-81
2021/04/30 04:21:02;;;;;;;8.40;5.50;;;10.60;95.40;;;;;;5109855;28;20048;-83
2021/04/30 04:23:29;;;;;;;6.78;4.70;;;10.60;95.60;;;;;;5094241;28;20116;-81
2021/04/30 04:25:56;;;;;;;8.95;5.60;;;10.60;95.60;;;;;;5087777;28;20072;-82
2021/04/30 04:28:23;;;;;;;6.28;4.60;;;10.60;95.70;;;;;;5090415;28;20561;-81
2021/04/30 04:30:52;;;;;;;6.50;4.82;;;10.60;95.70;;;;;;5096664;28;20079;-81
2021/04/30 04:33:20;;;;;;;8.82;5.50;;;10.60;95.60;;;;;;5097087;28;20040;-80
2021/04/30 04:35:47;;;;;;;7.55;5.70;;;10.60;95.80;;;;;;5092464;28;20080;-82
2021/04/30 04:38:13;;;;;;;7.97;5.30;;;10.50;95.80;;;;;;5088589;28;20080;-79
2021/04/30 04:40:40;;;;;;;8.98;5.70;;;10.50;95.90;;;;;;5096509;28;20142;-80
2021/04/30 04:43:07;;;;;;;7.28;5.68;;;10.50;96.00;;;;;;5087172;28;20067;-81
2021/04/30 04:45:33;;;;;;;8.25;4.90;;;10.50;96.10;;;;;;5118549;28;20039;-80
2021/04/30 04:48:01;;;;;;;8.05;5.95;;;10.40;96.30;;;;;;5102625;28;20131;-81
2021/04/30 04:50:29;;;;;;;7.97;5.63;;;10.40;96.10;;;;;;5104583;28;20111;-82
2021/04/30 04:52:55;;;;;;;7.07;5.18;;;10.30;96.10;;;;;;5100081;28;20079;-79
2021/04/30 04:55:22;;;;;;;8.05;5.85;;;10.30;96.40;;;;;;5104948;28;20040;-79
2021/04/30 04:57:49;;;;;;;8.40;6.07;;;10.30;96.60;;;;;;5092965;28;20072;-79
2021/04/30 05:00:17;;;;;;;7.72;5.72;;;10.20;96.60;;;;;;5089446;28;20071;-79
2021/04/30 05:02:44;;;;;;;7.13;5.00;;;10.20;96.60;;;;;;5095461;28;20127;-80
2021/04/30 05:05:12;;;;;;;6.75;4.57;;;10.20;96.70;;;;;;5084234;28;20098;-79
2021/04/30 05:07:40;;;;;;;7.88;5.13;;;10.20;96.70;;;;;;5078297;28;20482;-79
2021/04/30 05:10:08;;;;;;;8.02;5.78;;;10.30;96.70;;;;;;5073437;28;20149;-79
2021/04/30 05:12:35;;;;;;;8.23;5.60;;;10.30;96.30;;;;;;5077965;28;20076;-79
2021/04/30 05:15:02;;;;;;;6.50;4.90;;;10.30;96.20;;;;;;5083450;28;20080;-79
2021/04/30 05:17:28;;;;;;;7.88;5.43;;;10.40;96.50;;;;;;5074938;28;20083;-78
2021/04/30 05:19:55;;;;;;;7.90;5.75;;;10.40;96.30;;;;;;5076504;28;20068;-79
2021/04/30 05:22:22;;;;;;;8.27;6.35;;;10.30;96.30;;;;;;5075862;28;20098;-79
2021/04/30 05:24:50;;;;;;;8.52;5.70;;;10.40;96.00;;;;;;5078059;28;20068;-80
2021/04/30 05:27:16;;;;;;;7.43;5.28;;;10.30;95.90;;;;;;5091227;28;20094;-81
2021/04/30 05:29:44;;;;;;;6.70;4.60;;;10.30;96.30;;;;;;5092507;28;20169;-83
2021/04/30 05:32:12;;;;;;;7.10;5.05;;;10.40;96.50;;;;;;5096221;28;20044;-81
2021/04/30 05:34:39;;;;;;;7.40;4.97;;;10.40;96.90;;;;;;5098598;28;20088;-81
2021/04/30 05:37:06;;;;;;;7.05;5.25;;;10.40;97.00;;;;;;5102937;28;20051;-79
2021/04/30 05:39:35;;;;;;;8.25;5.43;;;10.40;97.10;;;;;;5104036;28;20055;-80
2021/04/30 05:42:02;;;;;;;7.75;5.10;;;10.50;97.10;;;;;;5099060;28;20079;-78
2021/04/30 05:44:29;;;;;;;8.07;5.45;;;10.60;97.50;;;;;;5099227;28;20056;-79
2021/04/30 05:46:56;;;;;;;7.75;5.93;;;10.60;97.20;;;;;;5097970;28;20238;-80
2021/04/30 05:49:22;;;;;;;7.53;5.68;;;10.70;97.00;;;;;;5094488;28;20043;-80
2021/04/30 05:51:49;;;;;;;7.43;5.20;;;10.80;96.80;;;;;;5093725;28;20550;-81
2021/04/30 05:54:16;;;;;;;8.32;5.50;;;10.90;96.60;;;;;;5083247;28;20094;-80
2021/04/30 05:56:43;;;;;;;8.02;5.50;;;10.90;96.30;;;;;;5094477;28;20071;-78
2021/04/30 05:59:10;;;;;;;7.95;5.50;;;10.80;96.10;;;;;;5093415;28;20125;-78
2021/04/30 06:01:37;;;;;;;8.18;6.10;;;10.80;95.50;;;;;;5094769;28;20540;-78
2021/04/30 06:04:04;;;;;;;9.15;6.03;;;10.90;94.40;;;;;;5092186;28;21311;-78
2021/04/30 06:06:31;;;;;;;8.57;6.03;;;10.90;93.90;;;;;;5081857;28;20091;-79
2021/04/30 06:08:58;;;;;;;7.60;5.78;;;11.00;93.90;;;;;;5090125;28;20094;-79
2021/04/30 06:11:26;;;;;;;8.32;5.72;;;11.00;93.50;;;;;;5080250;28;20049;-79
2021/04/30 06:13:53;;;;;;;9.93;6.22;;;11.10;93.30;;;;;;5074242;28;20466;-80
2021/04/30 06:16:21;;;;;;;7.75;6.05;;;11.10;92.90;;;;;;5083097;28;20504;-79
2021/04/30 06:18:47;;;;;;;7.75;5.60;;;11.20;92.70;;;;;;5091208;28;20123;-79
2021/04/30 06:21:14;;;;;;;8.15;5.80;;;11.20;92.70;;;;;;5093962;28;20060;-79
2021/04/30 06:23:40;;;;;;;7.63;5.60;;;11.30;92.80;;;;;;5093346;28;20136;-78
2021/04/30 06:26:07;;;;;;;8.55;6.15;;;11.30;92.90;;;;;;5093986;28;20143;-78
2021/04/30 06:28:35;;;;;;;7.93;6.07;;;11.40;93.30;;;;;;5094513;28;20466;-79
2021/04/30 06:31:02;;;;;;;9.02;6.00;;;11.40;93.10;;;;;;5093557;28;20126;-78
2021/04/30 06:33:29;;;;;;;9.02;6.40;;;11.40;93.00;;;;;;5093202;28;20072;-78
2021/04/30 06:35:57;;;;;;;8.57;6.40;;;11.40;92.90;;;;;;5086318;28;20057;-77
2021/04/30 06:38:24;;;;;;;10.00;6.53;;;11.40;92.70;;;;;;5077788;28;20039;-78
2021/04/30 06:40:51;;;;;;;9.55;6.82;;;11.50;92.30;;;;;;5082240;28;20083;-77
2021/04/30 06:43:17;;;;;;;9.32;6.65;;;11.50;92.20;;;;;;5089811;28;20098;-77
2021/04/30 06:45:44;;;;;;;9.93;7.03;;;11.40;92.10;;;;;;5095273;28;20497;-78
2021/04/30 06:48:11;;;;;;;8.15;6.07;;;11.40;92.20;;;;;;5091610;28;20066;-77
2021/04/30 06:50:39;;;;;;;9.88;6.28;;;11.40;91.90;;;;;;5092655;28;20591;-79
2021/04/30 06:53:06;;;;;;;8.63;5.82;;;11.30;92.00;;;;;;5061336;28;20052;-78
2021/04/30 06:55:32;;;;;;;7.43;5.53;;;11.30;92.10;;;;;;5085936;28;20123;-78
2021/04/30 06:57:59;;;;;;;7.53;4.90;;;11.20;92.00;;;;;;5093643;28;20546;-79
2021/04/30 07:00:26;;;;;;;8.30;6.22;;;11.20;92.00;;;;;;5093320;28;20097;-85
2021/04/30 07:02:53;;;;;;;7.85;5.30;;;11.30;91.90;;;;;;5091076;28;20076;-85
2021/04/30 07:05:19;;;;;;;7.57;5.57;;;11.20;91.70;;;;;;5089217;28;20044;-79
2021/04/30 07:07:47;;;;;;;8.60;5.95;;;11.20;91.50;;;;;;5093916;28;20052;-79
2021/04/30 07:10:14;;;;;;;8.68;6.43;;;11.20;91.50;;;;;;5095388;28;20112;-78
2021/04/30 07:12:40;;;;;;;8.32;6.00;;;11.20;90.80;;;;;;5101963;28;20067;-78
2021/04/30 07:15:09;;;;;;;9.48;7.10;;;11.30;90.70;;;;;;5094334;28;20513;-78
2021/04/30 07:17:36;;;;;;;8.27;5.53;;;11.30;90.00;;;;;;5093836;28;20127;-79
2021/04/30 07:20:05;;;;;;;8.00;5.55;;;11.20;90.20;;;;;;5092584;28;20128;-78
2021/04/30 07:22:31;;;;;;;8.90;6.25;;;11.20;90.40;;;;;;5092948;28;20489;-79
2021/04/30 07:24:59;;;;;;;8.35;5.75;;;11.20;90.10;;;;;;5094114;28;20076;-79
2021/04/30 07:27:26;;;;;;;9.93;6.00;;;11.30;90.40;;;;;;5093964;28;20055;-80
2021/04/30 07:29:52;;;;;;;8.18;6.03;;;11.30;90.50;;;;;;5093696;28;20045;-78
2021/04/30 07:32:19;;;;;;;7.88;5.75;;;11.30;90.20;;;;;;5094636;28;20102;-78
2021/04/30 07:34:46;;;;;;;9.27;5.97;;;11.40;90.20;;;;;;5096388;28;20494;-78
2021/04/30 07:37:13;;;;;;;9.75;5.38;;;11.40;90.00;;;;;;5097965;28;20052;-78
2021/04/30 07:39:40;;;;;;;7.70;5.78;;;11.40;90.20;;;;;;5096073;28;20068;-78
2021/04/30 07:42:11;;;;;;;8.88;6.65;;;11.50;90.30;;;;;;5095319;28;20105;-79
2021/04/30 07:44:38;;;;;;;8.48;5.95;;;11.60;89.80;;;;;;5096157;28;20040;-78
2021/04/30 07:47:06;;;;;;;9.68;6.20;;;11.60;89.70;;;;;;5094101;28;20129;-78
2021/04/30 07:49:32;;;;;;;8.23;5.93;;;11.60;90.00;;;;;;5099135;28;20051;-79
2021/04/30 07:51:59;;;;;;;9.63;6.57;;;11.70;89.60;;;;;;5099290;28;20076;-80
2021/04/30 07:54:26;;;;;;;9.75;6.18;;;11.70;89.00;;;;;;5098279;28;20476;-78
2021/04/30 07:56:52;;;;;;;8.35;6.10;;;11.70;89.60;;;;;;5097521;28;20485;-78
2021/04/30 07:59:20;;;;;;;10.52;6.57;;;11.60;89.80;;;;;;5098153;28;20048;-79
2021/04/30 08:01:47;;;;;;;8.10;5.82;;;11.70;90.10;;;;;;5097433;28;20048;-79
2021/04/30 08:04:13;;;;;;;9.70;6.07;;;11.70;90.20;;;;;;5102899;28;20461;-79
2021/04/30 08:06:40;;;;;;;9.10;6.10;;;11.80;90.20;;;;;;5105858;28;20106;-78
2021/04/30 08:09:07;;;;;;;8.18;6.22;;;11.80;89.80;;;;;;5104844;28;20397;-78
2021/04/30 08:11:35;;;;;;;7.97;5.82;;;11.90;90.00;;;;;;5106234;28;20069;-77
2021/04/30 08:14:06;;;;;;;10.05;7.00;;;12.00;89.70;;;;;;5099777;28;20067;-78
2021/04/30 08:16:34;;;;;;;9.57;6.80;;;12.00;89.20;;;;;;5097951;28;20071;-79
2021/04/30 08:19:01;;;;;;;9.25;6.18;;;12.00;88.90;;;;;;5097219;28;20075;-79
2021/04/30 08:21:30;;;;;;;9.05;6.50;;;12.00;89.40;;;;;;5097048;28;20087;-79
2021/04/30 08:23:57;;;;;;;8.85;6.30;;;12.00;89.00;;;;;;5098053;28;20081;-80
2021/04/30 08:26:25;;;;;;;9.00;6.03;;;12.00;89.60;;;;;;5097692;27;20130;-78
2021/04/30 08:28:53;;;;;;;7.82;5.68;;;12.00;89.60;;;;;;5097163;28;20083;-79
2021/04/30 08:31:22;;;;;;;10.35;6.68;;;11.90;89.30;;;;;;5080599;28;20075;-79
2021/04/30 08:33:50;;;;;;;9.70;6.85;;;11.90;89.40;;;;;;5097324;28;20465;-78
2021/04/30 08:36:17;;;;;;;9.63;7.05;;;11.90;88.70;;;;;;5095635;28;20227;-78
2021/04/30 08:38:44;;;;;;;10.50;7.00;;;11.90;88.60;;;;;;5096207;28;20090;-77
2021/04/30 08:41:10;;;;;;;8.82;6.03;;;11.90;89.30;;;;;;5096128;27;20129;-79
2021/04/30 08:43:38;;;;;;;11.18;7.25;;;11.90;89.20;;;;;;5095821;28;20112;-79
2021/04/30 08:46:05;;;;;;;9.02;6.68;;;11.90;89.60;;;;;;5096527;28;20079;-78
2021/04/30 08:48:33;;;;;;;9.73;6.63;;;12.00;89.60;;;;;;5096912;28;20079;-78
2021/04/30 08:51:02;;;;;;;9.65;6.97;;;12.00;89.20;;;;;;5091985;28;20051;-78
2021/04/30 08:53:28;;;;;;;9.25;6.95;;;12.10;89.50;;;;;;5083784;28;20096;-76
2021/04/30 08:56:00;;;;;;;11.90;7.85;;;12.10;89.00;;;;;;5089382;28;20131;-77
2021/04/30 08:58:27;;;;;;;11.57;7.50;;;12.20;89.00;;;;;;5081854;28;20052;-81
2021/04/30 09:00:55;;;;;;;14.38;9.90;;;12.30;88.60;;;;;;5102178;28;20063;-82
2021/04/30 09:03:22;;;;;;;10.55;7.72;;;12.40;88.30;;;;;;5097386;28;20131;-81
2021/04/30 09:05:51;;;;;;;10.25;7.47;;;12.40;88.50;;;;;;5096148;28;20083;-80
2021/04/30 09:08:19;;;;;;;10.20;7.25;;;12.50;88.00;;;;;;5076939;28;20044;-76
2021/04/30 09:10:49;;;;;;;8.68;6.55;;;12.60;87.90;;;;;;5088411;28;20135;-78
2021/04/30 09:13:18;;;;;;;11.05;7.15;;;12.70;87.50;;;;;;5091244;28;20139;-79
2021/04/30 09:15:47;;;;;;;10.30;7.70;;;12.70;87.40;;;;;;5094325;28;20139;-82
2021/04/30 09:18:25;;;;;;;11.45;7.38;;;12.80;86.80;;;;;;5082544;28;20095;-79
2021/04/30 09:20:54;;;;;;;11.13;7.57;;;12.90;85.90;;;;;;5093171;28;20113;-80
2021/04/30 09:23:38;;;;;;;9.18;6.82;;;13.00;84.80;;;;;;5094635;28;20064;-80
2021/04/30 09:26:24;;;;;;;;;;;13.00;84.40;;;;;;5096179;28;20777;-82
2021/04/30 09:29:02;;;;;;;9.88;7.22;;;13.00;83.70;;;;;;5094350;28;20534;-82
2021/04/30 09:31:35;;;;;;;10.48;6.68;;;13.10;83.40;;;;;;5093291;28;20520;-82
2021/04/30 09:34:24;;;;;;;8.60;6.50;;;13.10;82.60;;;;;;5093241;28;20163;-83
2021/04/30 09:37:14;;;;;;;9.77;6.70;;;13.10;82.80;;;;;;5089597;28;20056;-84
2021/04/30 09:39:56;;;;;;;9.23;6.78;;;13.00;81.40;;;;;;5095836;28;20045;-83
2021/04/30 09:42:24;;;;;;;10.13;6.45;;;13.00;80.00;;;;;;5104144;28;20043;-84
2021/04/30 09:44:57;;;;;;;9.05;6.20;;;12.90;80.10;;;;;;5094676;28;20475;-81
2021/04/30 09:47:27;;;;;;;8.73;6.10;;;12.80;80.60;;;;;;5104559;28;20059;-82
2021/04/30 09:49:58;;;;;;;8.43;6.07;;;12.80;80.60;;;;;;5122166;28;20035;-80
2021/04/30 09:52:29;;;;;;;8.60;6.45;;;12.80;81.00;;;;;;5101098;28;20075;-87
2021/04/30 09:55:01;;;;;;;9.05;5.88;;;12.90;80.10;;;;;;5078497;28;20150;-82
2021/04/30 09:57:30;;;;;;;9.35;6.68;;;12.90;80.00;;;;;;5084707;28;20610;-82
2021/04/30 09:59:59;;;;;;;8.68;5.90;;;12.90;80.50;;;;;;5099946;28;20056;-84
2021/04/30 10:02:28;;;;;;;9.90;7.20;;;13.00;81.40;;;;;;5104399;28;20044;-81
2021/04/30 10:04:57;;;;;;;8.70;6.30;;;13.00;81.10;;;;;;5091654;28;20436;-79
2021/04/30 10:07:30;;;;;;;10.07;7.43;;;13.10;79.90;;;;;;5091272;28;20071;-80
2021/04/30 10:10:10;;;;;;;9.77;7.60;;;13.20;78.80;;;;;;5091437;28;20075;-79
2021/04/30 10:12:38;;;;;;;8.90;5.80;;;13.20;77.90;;;;;;5089783;28;20044;-76
2021/04/30 10:15:08;;;;;;;9.57;6.07;;;13.20;78.40;;;;;;5079906;28;20567;-77
2021/04/30 10:17:35;;;;;;;10.30;7.57;;;13.10;78.70;;;;;;5088436;28;20144;-78
2021/04/30 10:20:03;;;;;;;10.23;6.60;;;13.20;78.50;;;;;;5090846;28;20051;-83
2021/04/30 10:22:29;;;;;;;9.57;6.78;;;13.10;78.30;;;;;;5077713;28;20515;-80
2021/04/30 10:24:59;;;;;;;9.43;6.43;;;13.10;78.10;;;;;;5093993;28;20135;-83
2021/04/30 10:27:29;;;;;;;9.10;6.18;;;13.00;77.80;;;;;;5093832;28;20139;-79
2021/04/30 10:30:16;;;;;;;11.23;6.85;;;12.90;78.70;;;;;;5092701;28;20052;-79
2021/04/30 10:32:51;;;;;;;9.80;6.68;;;12.80;78.00;;;;;;5079718;28;20078;-80
2021/04/30 10:35:23;;;;;;;;;;;12.60;78.80;;;;;;5094368;28;20173;-79
2021/04/30 10:37:53;;;;;;;10.05;6.45;;;12.50;79.00;;;;;;5093547;28;19985;-78
2021/04/30 10:40:20;;;;;;;9.25;6.63;;;12.50;79.00;;;;;;5094508;28;20468;-78
2021/04/30 10:42:48;;;;;;;9.30;7.40;;;12.40;79.10;;;;;;5093466;28;20083;-80
2021/04/30 10:45:17;;;;;;;11.52;7.28;;;12.30;79.20;;;;;;5094396;28;20051;-81
2021/04/30 10:48:06;;;;;;;10.43;7.13;;;12.20;79.70;;;;;;5089824;28;20549;-82
2021/04/30 10:50:32;;;;;;;11.68;8.63;;;12.10;80.10;;;;;;5093742;28;20044;-82
2021/04/30 10:53:27;;;;;;;10.27;6.97;;;12.00;80.60;;;;;;5087530;28;20087;-80
2021/04/30 10:55:55;;;;;;;10.60;7.68;;;11.80;81.80;;;;;;5072335;28;20049;-76
2021/04/30 10:58:37;;;;;;;10.85;8.35;;;11.70;83.30;;;;;;5090669;28;20468;-78
2021/04/30 11:01:24;;;;;;;10.98;7.50;;;11.70;83.40;;;;;;5092884;28;20082;-79
2021/04/30 11:04:17;;;;;;;11.07;6.95;;;11.50;85.20;;;;;;5089281;28;20119;-79
2021/04/30 11:06:48;;;;;;;10.38;7.13;;;11.50;87.50;;;;;;5088778;28;20452;-79
2021/04/30 11:09:21;;;;;;;11.88;8.27;;;11.50;89.20;;;;;;5090370;28;20048;-79
2021/04/30 11:11:49;;;;;;;12.38;8.85;;;11.40;90.20;;;;;;5086469;28;20048;-78
2021/04/30 11:14:32;;;;;;;11.35;7.68;;;11.10;90.40;;;;;;5075245;28;20048;-78
2021/04/30 11:17:00;;;;;;;13.38;8.85;;;11.10;91.00;;;;;;5092615;28;20101;-79
2021/04/30 11:19:30;;;;;;;13.25;9.00;;;11.10;91.80;;;;;;5092067;28;20040;-79
2021/04/30 11:22:11;;;;;;;11.98;8.32;;;10.90;91.90;;;;;;5093583;28;20047;-78
2021/04/30 11:24:42;;;;;;;11.02;8.25;;;10.80;92.20;;;;;;5097224;28;20097;-80
2021/04/30 11:27:35;;;;;;;10.80;8.35;;;10.90;92.60;;;;;;5096777;28;20055;-79
2021/04/30 11:30:26;;;;;;;12.98;8.35;;;10.80;93.00;;;;;;5088757;28;20052;-78
2021/04/30 11:32:55;;;;;;;13.05;9.35;;;10.80;93.30;;;;;;5096519;28;20044;-78
2021/04/30 11:35:23;;;;;;;14.20;10.20;;;10.80;93.50;;;;;;5098426;28;20530;-76
2021/04/30 11:37:51;;;;;;;11.52;8.48;;;10.80;93.70;;;;;;5091864;28;20127;-77
2021/04/30 11:40:20;;;;;;;13.20;9.60;;;10.70;94.00;;;;;;5082189;28;20047;-78
2021/04/30 11:42:47;;;;;;;16.67;12.10;;;10.60;94.20;;;;;;5078208;28;20444;-77
2021/04/30 11:45:15;;;;;;;13.80;10.02;;;10.60;94.10;;;;;;5080212;28;20072;-78
2021/04/30 11:47:42;;;;;;;15.57;11.50;;;10.50;94.30;;;;;;5084857;28;20040;-79
2021/04/30 11:50:15;;;;;;;14.27;10.05;;;10.60;94.30;;;;;;5079845;28;20040;-78
2021/04/30 11:52:44;;;;;;;16.98;11.82;;;10.50;94.60;;;;;;5077663;28;20052;-78
2021/04/30 11:55:13;;;;;;;14.50;10.43;;;10.30;94.60;;;;;;5083501;28;20048;-79
2021/04/30 11:57:41;;;;;;;15.10;10.55;;;10.40;94.90;;;;;;5077782;28;20182;-79
2021/04/30 12:00:20;;;;;;;13.18;9.15;;;10.40;95.10;;;;;;5089821;28;20048;-76
2021/04/30 12:02:59;;;;;;;14.02;10.90;;;10.40;95.20;;;;;;5088728;28;20072;-78
2021/04/30 12:05:26;;;;;;;15.73;11.30;;;10.40;95.60;;;;;;5091428;28;20056;-77
2021/04/30 12:07:53;;;;;;;16.02;11.25;;;10.40;95.20;;;;;;5117735;28;20362;-77
2021/04/30 12:10:23;;;;;;;15.90;11.18;;;10.40;95.60;;;;;;5082491;28;20127;-78
2021/04/30 12:12:50;;;;;;;13.02;9.10;;;10.10;95.50;;;;;;5076871;28;20102;-77
2021/04/30 12:15:38;;;;;;;12.57;9.10;;;10.20;95.60;;;;;;5091541;28;20398;-79
2021/04/30 12:18:07;;;;;;;13.30;9.15;;;10.20;95.60;;;;;;5090935;28;20048;-81
2021/04/30 12:20:35;;;;;;;13.00;9.23;;;10.20;95.30;;;;;;5087686;28;20108;-78
2021/04/30 12:23:05;;;;;;;13.77;10.20;;;10.20;94.60;;;;;;5096402;28;20047;-78
2021/04/30 12:25:41;;;;;;;13.23;9.82;;;10.20;94.50;;;;;;5094953;28;20501;-79
2021/04/30 12:28:25;;;;;;;13.63;9.98;;;10.00;94.50;;;;;;5091624;28;20059;-79
2021/04/30 12:30:57;;;;;;;13.35;9.95;;;10.00;94.90;;;;;;5081676;28;20052;-79
2021/04/30 12:33:27;;;;;;;13.43;9.35;;;10.00;94.70;;;;;;5091914;28;20048;-79
2021/04/30 12:35:57;;;;;;;12.57;8.88;;;9.90;95.00;;;;;;5089922;28;20493;-79
2021/04/30 12:38:25;;;;;;;11.77;8.73;;;9.90;95.40;;;;;;5090461;28;20063;-83
2021/04/30 12:40:52;;;;;;;16.30;11.05;;;9.90;95.90;;;;;;5109159;28;20043;-84
2021/04/30 12:43:28;;;;;;;14.35;9.98;;;9.90;95.70;;;;;;5094103;28;20068;-83
2021/04/30 12:45:57;;;;;;;14.15;10.13;;;9.90;95.90;;;;;;5097363;28;20569;-82
2021/04/30 12:48:25;;;;;;;12.75;9.93;;;9.90;96.00;;;;;;5095071;28;20486;-82
2021/04/30 12:50:52;;;;;;;14.45;10.10;;;9.80;95.80;;;;;;5096622;28;20079;-84
2021/04/30 12:53:19;;;;;;;15.27;11.48;;;9.90;96.10;;;;;;5093053;28;20455;-85